Time;durP1;ratioP1;P1;durP2;ratioP2;P2;SDS_P1;SDS_P2;PMS_P1;PMS_P2;Temp;Humidity;BMP_temperature;BMP_pressure;BME280_temperature;BME280_humidity;BME280_pressure;Samples;Min_cycle;Max_cycle;Signal;HPM_P1;HPM_P2
2021/11/17 02:27:54;;;;;;;9.00;6.73;;;6.90;99.90;;;;;;5029917;28;20495;-64
2021/11/17 02:30:43;;;;;;;10.77;7.07;;;6.90;99.90;;;;;;5034048;28;20445;-65
2021/11/17 02:33:23;;;;;;;9.20;6.60;;;6.80;99.90;;;;;;5033639;28;20977;-64
2021/11/17 02:36:07;;;;;;;10.40;7.57;;;6.80;99.90;;;;;;5033812;28;20441;-63
2021/11/17 02:38:58;;;;;;;12.50;7.57;;;6.70;99.90;;;;;;5032411;28;20451;-64
2021/11/17 02:41:45;;;;;;;14.03;8.50;;;6.60;99.90;;;;;;5033500;28;20822;-64
2021/11/17 02:44:28;;;;;;;10.13;7.23;;;6.60;99.90;;;;;;5033618;28;20440;-65
2021/11/17 02:47:25;;;;;;;11.70;7.87;;;6.50;99.90;;;;;;5032299;28;20979;-65
2021/11/17 02:50:09;;;;;;;11.83;7.77;;;6.50;99.90;;;;;;5032733;28;20444;-64
2021/11/17 02:52:56;;;;;;;10.33;8.00;;;6.50;99.90;;;;;;5033747;28;20444;-64
2021/11/17 02:55:51;;;;;;;13.27;8.33;;;6.50;99.90;;;;;;5033436;28;20448;-64
2021/11/17 02:58:50;;;;;;;10.17;7.67;;;6.50;99.90;;;;;;5032388;28;20454;-64
2021/11/17 03:01:41;;;;;;;11.37;7.70;;;6.40;99.90;;;;;;5024589;28;20483;-63
2021/11/17 03:04:24;;;;;;;11.47;8.33;;;6.40;99.90;;;;;;5033406;28;20445;-64
2021/11/17 03:07:07;;;;;;;12.03;8.00;;;6.40;99.90;;;;;;5032113;28;20469;-65
2021/11/17 03:09:55;;;;;;;11.60;7.90;;;6.40;99.90;;;;;;5032823;28;20911;-64
2021/11/17 03:12:40;;;;;;;12.60;8.93;;;6.40;99.90;;;;;;5032988;28;20499;-65
2021/11/17 03:15:42;;;;;;;10.43;8.07;;;6.40;99.90;;;;;;5032880;28;20444;-65
2021/11/17 03:18:25;;;;;;;12.23;7.43;;;6.40;99.90;;;;;;5026707;28;20489;-63
2021/11/17 03:21:08;;;;;;;12.50;8.23;;;6.40;99.90;;;;;;5032765;28;20832;-66
2021/11/17 03:23:48;;;;;;;13.50;7.83;;;6.50;99.90;;;;;;5032758;28;20459;-64
2021/11/17 03:26:31;;;;;;;11.23;8.30;;;6.50;99.90;;;;;;5032110;28;20492;-62
2021/11/17 03:29:19;;;;;;;13.77;9.13;;;6.50;99.90;;;;;;5032338;28;20516;-65
2021/11/17 03:32:00;;;;;;;10.10;8.10;;;6.50;99.90;;;;;;5032504;28;20896;-64
2021/11/17 03:34:48;;;;;;;12.20;8.90;;;6.50;99.90;;;;;;5032387;28;20441;-64
2021/11/17 03:37:52;;;;;;;10.67;8.13;;;6.50;99.90;;;;;;5031080;28;20992;-65
2021/11/17 03:40:59;;;;;;;9.93;7.60;;;6.50;99.90;;;;;;5032515;28;20947;-63
2021/11/17 03:43:58;;;;;;;11.10;7.30;;;6.40;99.90;;;;;;5026887;28;20503;-64
2021/11/17 03:46:45;;;;;;;11.40;8.63;;;6.50;99.90;;;;;;5031627;28;20473;-64
2021/11/17 03:49:25;;;;;;;10.03;7.67;;;6.40;99.90;;;;;;5032162;28;20476;-65
2021/11/17 03:52:22;;;;;;;12.80;8.33;;;6.50;99.90;;;;;;5032179;28;20449;-64
2021/11/17 03:55:19;;;;;;;12.03;8.73;;;6.50;99.90;;;;;;5031886;28;20471;-65
2021/11/17 03:57:58;;;;;;;11.30;8.03;;;6.50;99.90;;;;;;5023555;28;20482;-64
2021/11/17 04:00:48;;;;;;;12.63;8.13;;;6.50;99.90;;;;;;5032046;28;20452;-64
2021/11/17 04:03:42;;;;;;;16.10;9.27;;;6.50;99.90;;;;;;5031958;28;21026;-64
2021/11/17 04:06:22;;;;;;;13.60;9.43;;;6.50;99.90;;;;;;5031688;28;20484;-62
2021/11/17 04:09:01;;;;;;;12.80;8.43;;;6.50;99.90;;;;;;5031195;28;20494;-63
2021/11/17 04:11:59;;;;;;;16.23;9.00;;;6.50;99.90;;;;;;5031599;28;20461;-65
2021/11/17 04:14:38;;;;;;;14.20;9.20;;;6.40;99.90;;;;;;5021301;28;20464;-65
2021/11/17 04:17:26;;;;;;;11.93;8.27;;;6.40;99.90;;;;;;5030731;28;20461;-65
2021/11/17 04:20:04;;;;;;;15.00;8.80;;;6.50;99.90;;;;;;5031749;28;20515;-65
2021/11/17 04:22:49;;;;;;;13.63;8.33;;;6.50;99.90;;;;;;5031749;28;20452;-64
2021/11/17 04:25:40;;;;;;;13.53;8.87;;;6.50;99.90;;;;;;5031471;28;20446;-65
2021/11/17 04:28:20;;;;;;;15.07;9.70;;;6.50;99.90;;;;;;5029923;28;21009;-64
2021/11/17 04:31:09;;;;;;;13.13;9.63;;;6.40;99.90;;;;;;5031409;28;20446;-65
2021/11/17 04:34:10;;;;;;;12.83;8.80;;;6.50;99.90;;;;;;5031425;28;20444;-66
2021/11/17 04:37:02;;;;;;;14.80;9.80;;;6.50;99.90;;;;;;5030328;28;20504;-64
2021/11/17 04:39:43;;;;;;;13.10;9.17;;;6.50;99.90;;;;;;5031105;28;20441;-65
2021/11/17 04:42:32;;;;;;;14.53;9.30;;;6.50;99.90;;;;;;5031226;28;20445;-65
2021/11/17 04:45:17;;;;;;;13.33;9.17;;;6.50;99.90;;;;;;5031164;28;20449;-65
2021/11/17 04:48:00;;;;;;;14.63;9.77;;;6.40;99.90;;;;;;5029880;28;20475;-65
2021/11/17 04:50:57;;;;;;;14.60;9.93;;;6.50;99.90;;;;;;5030598;28;20452;-65
2021/11/17 04:53:39;;;;;;;16.10;10.57;;;6.50;99.90;;;;;;5030971;28;20944;-66
2021/11/17 04:56:31;;;;;;;13.37;9.00;;;6.40;99.90;;;;;;5030867;28;20835;-65
2021/11/17 04:59:15;;;;;;;13.70;9.13;;;6.50;99.90;;;;;;5030665;28;20437;-65
2021/11/17 05:01:54;;;;;;;15.40;10.13;;;6.40;99.90;;;;;;5034348;28;20837;-65
2021/11/17 05:04:33;;;;;;;17.00;10.27;;;6.40;99.90;;;;;;5050089;28;20445;-64
2021/11/17 05:07:19;;;;;;;15.77;9.77;;;6.40;99.90;;;;;;5049204;28;20460;-64
2021/11/17 05:09:56;;;;;;;16.03;8.60;;;6.40;99.90;;;;;;5050586;28;20476;-64
2021/11/17 05:12:35;;;;;;;14.40;9.53;;;6.40;99.90;;;;;;5050361;28;20441;-65
2021/11/17 05:15:12;;;;;;;15.53;9.43;;;6.40;99.90;;;;;;5050558;28;20440;-65
2021/11/17 05:17:47;;;;;;;19.00;11.37;;;6.40;99.90;;;;;;5049067;28;21021;-65
2021/11/17 05:20:36;;;;;;;13.53;9.60;;;6.40;99.90;;;;;;5050499;28;20440;-65
2021/11/17 05:23:20;;;;;;;14.47;8.80;;;6.40;99.90;;;;;;5050573;28;20440;-64
2021/11/17 05:26:03;;;;;;;14.30;8.80;;;6.30;99.90;;;;;;5050930;28;21124;-65
2021/11/17 05:28:50;;;;;;;16.10;8.70;;;6.30;99.90;;;;;;5049528;28;20476;-65
2021/11/17 05:31:30;;;;;;;16.30;10.07;;;6.30;99.90;;;;;;5050524;28;20536;-64
2021/11/17 05:34:15;;;;;;;17.10;9.97;;;6.30;99.90;;;;;;5050727;28;20456;-64
2021/11/17 05:36:53;;;;;;;13.07;8.37;;;6.30;99.90;;;;;;5049180;28;20527;-67
2021/11/17 05:39:32;;;;;;;18.15;10.40;;;6.30;99.90;;;;;;5050444;28;20799;-68
2021/11/17 05:42:18;;;;;;;18.33;9.53;;;6.30;99.90;;;;;;5050586;28;20205;-64
2021/11/17 05:44:59;;;;;;;12.23;8.03;;;6.30;99.90;;;;;;5050069;28;20436;-65
2021/11/17 05:47:38;;;;;;;14.60;9.63;;;6.30;99.90;;;;;;5049054;28;20464;-65
2021/11/17 05:50:22;;;;;;;13.83;9.33;;;6.30;99.90;;;;;;5049954;28;21023;-63
2021/11/17 05:53:08;;;;;;;13.03;8.30;;;6.20;99.90;;;;;;5050044;28;20475;-64
2021/11/17 05:55:55;;;;;;;15.97;9.07;;;6.20;99.90;;;;;;5049844;28;20455;-64
2021/11/17 05:58:37;;;;;;;14.73;8.77;;;6.20;99.90;;;;;;5048877;28;20451;-65
2021/11/17 06:01:19;;;;;;;16.80;9.20;;;6.30;99.90;;;;;;5049888;28;20534;-62
2021/11/17 06:03:58;;;;;;;14.43;9.53;;;6.20;99.90;;;;;;5049581;28;20448;-65
2021/11/17 06:06:25;;;;;;;20.00;10.97;;;6.20;99.90;;;;;;5049120;28;20514;-65
2021/11/17 06:08:54;;;;;;;13.30;8.50;;;6.20;99.90;;;;;;5049234;28;20858;-65
2021/11/17 06:11:24;;;;;;;13.00;8.37;;;6.10;99.90;;;;;;5048586;28;20491;-64
2021/11/17 06:13:52;;;;;;;14.87;8.87;;;6.10;99.90;;;;;;5048084;28;20444;-64
2021/11/17 06:16:19;;;;;;;14.40;9.40;;;6.10;99.90;;;;;;5042802;28;20469;-65
2021/11/17 06:18:48;;;;;;;16.33;9.10;;;6.10;99.90;;;;;;5045795;28;20436;-63
2021/11/17 06:21:15;;;;;;;12.80;9.10;;;6.10;99.90;;;;;;5045390;28;20507;-64
2021/11/17 06:23:47;;;;;;;16.70;9.20;;;6.20;99.90;;;;;;5047836;28;20452;-64
2021/11/17 06:26:19;;;;;;;14.23;9.43;;;6.10;99.90;;;;;;5033569;28;20474;-59
2021/11/17 06:28:51;;;;;;;15.83;9.37;;;6.10;99.90;;;;;;5027964;28;20539;-62
2021/11/17 06:31:18;;;;;;;14.70;8.83;;;6.10;99.90;;;;;;5027925;28;20453;-61
2021/11/17 06:33:44;;;;;;;16.83;9.50;;;6.10;99.90;;;;;;5029509;28;21012;-63
2021/11/17 06:36:11;;;;;;;12.90;8.20;;;6.10;99.90;;;;;;5029175;28;20492;-64
2021/11/17 06:38:38;;;;;;;12.87;9.00;;;6.10;99.90;;;;;;5028394;28;20453;-65
2021/11/17 06:41:06;;;;;;;17.30;9.70;;;6.10;99.90;;;;;;5029422;28;20452;-65
2021/11/17 06:43:32;;;;;;;14.70;8.73;;;6.10;99.90;;;;;;5029171;28;20821;-63
2021/11/17 06:46:01;;;;;;;14.00;9.83;;;6.10;99.90;;;;;;5029314;28;20452;-64
2021/11/17 06:48:29;;;;;;;12.77;9.03;;;6.10;99.90;;;;;;5027685;28;20454;-64
2021/11/17 06:50:57;;;;;;;16.07;9.37;;;6.10;99.90;;;;;;5027755;28;20837;-65
2021/11/17 06:53:26;;;;;;;13.83;9.40;;;6.10;99.90;;;;;;5029194;28;20981;-64
2021/11/17 06:55:54;;;;;;;15.70;9.30;;;6.10;99.90;;;;;;5029349;28;20452;-63
2021/11/17 06:58:21;;;;;;;15.00;8.30;;;6.10;99.90;;;;;;5028264;28;20456;-62
2021/11/17 07:00:51;;;;;;;14.03;9.30;;;6.20;99.90;;;;;;5029316;28;21026;-64
2021/11/17 07:03:19;;;;;;;15.47;9.10;;;6.20;99.90;;;;;;5029175;28;20433;-65
2021/11/17 07:05:47;;;;;;;12.30;8.50;;;6.20;99.90;;;;;;5029045;28;20446;-65
2021/11/17 07:08:14;;;;;;;14.50;8.90;;;6.20;99.90;;;;;;5027897;28;20453;-63
2021/11/17 07:10:41;;;;;;;13.53;9.50;;;6.30;99.90;;;;;;5028910;28;21029;-64
2021/11/17 07:13:09;;;;;;;13.87;8.87;;;6.30;99.90;;;;;;5029755;28;20455;-64
2021/11/17 07:15:36;;;;;;;14.33;8.63;;;6.30;99.90;;;;;;5032837;28;20447;-65
2021/11/17 07:18:04;;;;;;;13.37;8.10;;;6.30;99.90;;;;;;5031400;28;20465;-64
2021/11/17 07:20:32;;;;;;;14.33;8.70;;;6.40;99.90;;;;;;5033160;28;20437;-65
2021/11/17 07:22:59;;;;;;;13.00;7.93;;;6.40;99.90;;;;;;5032928;28;20820;-63
2021/11/17 07:25:26;;;;;;;11.77;8.20;;;6.40;99.90;;;;;;5032594;28;20457;-62
2021/11/17 07:27:55;;;;;;;13.20;7.37;;;6.30;99.90;;;;;;5031366;28;20465;-62
2021/11/17 07:30:25;;;;;;;12.40;7.80;;;6.40;99.90;;;;;;5032393;28;20846;-63
2021/11/17 07:32:53;;;;;;;18.30;8.10;;;6.30;99.90;;;;;;5032292;28;20451;-64
2021/11/17 07:35:21;;;;;;;11.93;7.33;;;6.30;99.90;;;;;;5032332;28;20447;-64
2021/11/17 07:37:49;;;;;;;15.30;8.20;;;6.40;99.90;;;;;;5031182;28;20458;-64
2021/11/17 07:40:16;;;;;;;18.47;8.70;;;6.40;99.90;;;;;;5032297;28;20448;-65
2021/11/17 07:42:43;;;;;;;11.60;6.93;;;6.40;99.90;;;;;;5032337;28;20902;-63
2021/11/17 07:45:13;;;;;;;11.53;7.90;;;6.40;99.90;;;;;;5032861;28;20449;-65
2021/11/17 07:47:40;;;;;;;13.13;8.77;;;6.50;99.90;;;;;;5030816;28;20469;-65
2021/11/17 07:50:09;;;;;;;11.07;6.50;;;6.50;99.90;;;;;;5031931;28;20492;-65
2021/11/17 07:52:36;;;;;;;11.60;6.33;;;6.60;99.90;;;;;;5032149;28;20535;-65
2021/11/17 07:55:07;;;;;;;9.80;6.27;;;6.60;99.90;;;;;;5031981;28;20440;-65
2021/11/17 07:57:34;;;;;;;11.53;6.07;;;6.60;99.90;;;;;;5030750;28;20469;-65
2021/11/17 08:00:03;;;;;;;8.30;5.33;;;6.60;99.90;;;;;;5031987;28;20455;-64
2021/11/17 08:02:30;;;;;;;9.37;6.40;;;6.50;99.90;;;;;;5031910;28;20460;-65
2021/11/17 08:04:57;;;;;;;9.80;6.60;;;6.60;99.90;;;;;;5032211;28;20449;-65
2021/11/17 08:07:24;;;;;;;13.10;6.30;;;6.60;99.90;;;;;;5030758;28;20523;-65
2021/11/17 08:09:51;;;;;;;10.17;6.30;;;6.60;99.90;;;;;;5031971;28;20474;-65
2021/11/17 08:12:20;;;;;;;11.83;10.63;;;6.60;99.90;;;;;;5031781;28;20457;-65
2021/11/17 08:14:48;;;;;;;9.73;6.93;;;6.60;99.90;;;;;;5031937;28;20536;-65
2021/11/17 08:17:16;;;;;;;9.67;7.37;;;6.70;99.90;;;;;;5030565;28;20968;-63
2021/11/17 08:19:43;;;;;;;9.03;5.40;;;6.70;99.90;;;;;;5031636;28;20455;-65
2021/11/17 08:22:10;;;;;;;8.23;5.60;;;6.70;99.90;;;;;;5030737;28;20453;-65
2021/11/17 08:24:39;;;;;;;9.70;7.17;;;6.70;99.90;;;;;;5031633;28;20445;-65
2021/11/17 08:27:08;;;;;;;8.30;5.37;;;6.70;99.90;;;;;;5030272;28;20488;-64
2021/11/17 08:29:36;;;;;;;11.03;6.67;;;6.60;99.90;;;;;;5031407;28;20489;-65
2021/11/17 08:32:04;;;;;;;12.00;8.30;;;6.50;99.90;;;;;;5031549;28;20540;-65
2021/11/17 08:34:31;;;;;;;19.97;14.37;;;6.40;99.90;;;;;;5031394;28;20956;-66
2021/11/17 08:36:58;;;;;;;8.87;5.60;;;6.40;99.90;;;;;;5030015;28;20504;-64
2021/11/17 08:39:25;;;;;;;6.40;4.77;;;6.40;99.90;;;;;;5031159;28;20480;-65
2021/11/17 08:41:52;;;;;;;8.47;4.67;;;6.30;99.90;;;;;;5031248;28;20452;-65
2021/11/17 08:44:19;;;;;;;9.00;5.07;;;6.30;99.90;;;;;;5031149;28;20460;-66
2021/11/17 08:46:47;;;;;;;7.80;5.43;;;6.20;99.90;;;;;;5030109;28;20461;-65
2021/11/17 08:49:14;;;;;;;10.33;6.00;;;6.20;99.90;;;;;;5031209;28;20488;-65
2021/11/17 08:51:41;;;;;;;10.70;5.83;;;6.20;99.90;;;;;;5031115;28;20984;-64
2021/11/17 08:54:08;;;;;;;7.07;4.63;;;6.10;99.90;;;;;;5030913;28;20473;-64
2021/11/17 08:56:36;;;;;;;8.70;5.63;;;6.10;99.90;;;;;;5029908;28;20475;-64
2021/11/17 08:59:04;;;;;;;8.97;4.80;;;6.10;99.90;;;;;;5031123;28;20445;-65
2021/11/17 09:01:33;;;;;;;11.20;5.13;;;6.10;99.90;;;;;;5031169;28;20545;-64
2021/11/17 09:04:01;;;;;;;12.30;10.53;;;6.10;99.90;;;;;;5031208;28;20449;-63
2021/11/17 09:06:28;;;;;;;10.60;5.33;;;6.20;99.90;;;;;;5029908;28;20991;-63
2021/11/17 09:08:55;;;;;;;8.10;5.07;;;6.20;99.90;;;;;;5030354;28;20533;-64
2021/11/17 09:11:22;;;;;;;6.20;3.57;;;6.20;99.90;;;;;;5030846;28;20461;-64
2021/11/17 09:13:50;;;;;;;7.47;5.37;;;6.20;99.90;;;;;;5031316;28;20453;-64
2021/11/17 09:16:17;;;;;;;5.33;3.57;;;6.10;99.90;;;;;;5033225;28;20966;-63
2021/11/17 09:18:44;;;;;;;8.93;7.03;;;6.10;99.90;;;;;;5031663;28;20453;-63
2021/11/17 09:21:16;;;;;;;6.00;3.70;;;6.00;99.90;;;;;;5031216;28;20449;-64
2021/11/17 09:23:45;;;;;;;5.47;3.70;;;6.00;99.90;;;;;;5030710;28;20456;-64
2021/11/17 09:26:12;;;;;;;5.83;3.63;;;6.00;99.90;;;;;;5030368;28;20491;-65
2021/11/17 09:28:40;;;;;;;5.70;3.70;;;6.00;99.90;;;;;;5029638;28;20580;-64
2021/11/17 09:31:08;;;;;;;5.57;3.93;;;6.00;99.90;;;;;;5030328;28;20493;-64
2021/11/17 09:33:38;;;;;;;8.83;6.30;;;6.00;99.90;;;;;;5030332;28;20445;-65
2021/11/17 09:36:05;;;;;;;9.03;6.00;;;6.00;99.90;;;;;;5029993;28;20449;-65
2021/11/17 09:38:34;;;;;;;6.73;4.03;;;6.00;99.90;;;;;;5028807;28;20456;-64
2021/11/17 09:41:05;;;;;;;5.17;3.00;;;6.10;99.90;;;;;;5030249;28;20525;-65
2021/11/17 09:43:35;;;;;;;6.70;4.90;;;6.20;99.90;;;;;;5030031;28;20441;-64
2021/11/17 09:46:02;;;;;;;6.47;4.23;;;6.30;99.90;;;;;;5029731;28;20445;-64
2021/11/17 09:48:33;;;;;;;5.83;3.50;;;6.40;99.90;;;;;;5029316;28;20459;-64
2021/11/17 09:51:04;;;;;;;5.33;4.53;;;6.50;99.90;;;;;;5030012;28;20481;-65
2021/11/17 09:53:36;;;;;;;5.67;3.30;;;6.60;99.90;;;;;;5030342;28;20445;-65
2021/11/17 09:56:08;;;;;;;4.30;3.17;;;6.70;99.90;;;;;;5030117;28;20457;-65
2021/11/17 09:58:42;;;;;;;5.23;3.60;;;6.70;99.90;;;;;;5028993;28;20852;-66
2021/11/17 10:01:16;;;;;;;4.80;3.17;;;6.70;99.90;;;;;;5030055;28;20457;-64
2021/11/17 10:03:48;;;;;;;8.23;3.90;;;6.80;99.90;;;;;;5030097;28;20448;-64
2021/11/17 10:14:58;;;;;;;4.40;2.80;;;7.10;99.90;;;;;;5029138;28;20434;-64
2021/11/17 10:17:45;;;;;;;5.30;2.90;;;7.10;99.90;;;;;;5028466;28;20496;-65
2021/11/17 10:20:19;;;;;;;4.20;2.17;;;7.10;99.90;;;;;;5029634;28;20445;-64
2021/11/17 10:22:49;;;;;;;4.10;2.50;;;7.10;99.90;;;;;;5029767;28;20815;-63
2021/11/17 10:25:19;;;;;;;3.07;2.17;;;7.10;99.90;;;;;;5029832;28;20445;-65
2021/11/17 10:27:56;;;;;;;3.23;1.77;;;7.10;99.90;;;;;;5028728;28;20896;-65
2021/11/17 10:30:30;;;;;;;3.10;1.53;;;7.10;99.90;;;;;;5029779;28;20511;-66
2021/11/17 10:33:06;;;;;;;4.87;1.80;;;7.10;99.90;;;;;;5029973;28;20843;-63
2021/11/17 10:35:38;;;;;;;2.77;1.60;;;7.10;99.90;;;;;;5029635;28;20441;-65
2021/11/17 10:38:08;;;;;;;3.47;1.60;;;7.00;99.90;;;;;;5028489;28;20465;-65
2021/11/17 10:40:47;;;;;;;2.60;1.60;;;6.90;99.90;;;;;;5029658;28;21012;-64
2021/11/17 10:43:19;;;;;;;2.23;1.40;;;6.80;99.90;;;;;;5030026;28;20455;-65
2021/11/17 10:45:49;;;;;;;3.17;2.00;;;6.80;99.90;;;;;;5029871;28;20449;-65
2021/11/17 10:48:22;;;;;;;2.50;1.20;;;6.80;99.90;;;;;;5029402;28;20457;-65
2021/11/17 10:50:51;;;;;;;3.00;1.70;;;6.90;99.90;;;;;;5033590;28;20485;-65
2021/11/17 10:53:30;;;;;;;2.57;1.40;;;7.10;99.90;;;;;;5033433;28;21007;-65
2021/11/17 10:56:03;;;;;;;2.97;2.10;;;7.20;99.90;;;;;;5033625;28;20441;-65
2021/11/17 10:58:33;;;;;;;6.80;2.00;;;7.20;99.90;;;;;;5032650;28;20448;-64
2021/11/17 11:01:03;;;;;;;2.73;1.40;;;7.20;99.90;;;;;;5033480;28;20532;-65
2021/11/17 11:03:36;;;;;;;2.80;1.60;;;7.10;99.90;;;;;;5033555;28;20536;-65
2021/11/17 11:06:06;;;;;;;3.17;1.80;;;7.10;99.90;;;;;;5033391;28;20887;-65
2021/11/17 11:08:44;;;;;;;2.80;1.57;;;7.00;99.90;;;;;;5032647;28;20769;-65
2021/11/17 11:11:12;;;;;;;3.13;1.90;;;7.10;99.90;;;;;;5033458;28;20577;-65
2021/11/17 11:13:45;;;;;;;4.70;1.60;;;7.10;99.90;;;;;;5032856;28;20479;-65
2021/11/17 11:16:15;;;;;;;4.30;2.00;;;7.10;99.90;;;;;;5032823;28;20465;-65
2021/11/17 11:18:50;;;;;;;2.97;1.83;;;7.30;99.90;;;;;;5032463;28;20940;-66
2021/11/17 11:21:20;;;;;;;4.03;2.20;;;7.30;99.90;;;;;;5033047;28;20455;-64
2021/11/17 11:24:26;;;;;;;3.07;1.40;;;7.30;99.90;;;;;;5032782;28;20991;-66
2021/11/17 11:27:15;;;;;;;3.43;1.63;;;7.30;99.90;;;;;;5031593;28;20481;-65
2021/11/17 11:29:45;;;;;;;3.43;2.50;;;7.30;99.90;;;;;;5032532;28;20441;-66
2021/11/17 11:32:48;;;;;;;2.47;1.60;;;7.20;99.90;;;;;;5032514;28;20449;-65
2021/11/17 11:35:21;;;;;;;3.60;1.77;;;7.20;99.90;;;;;;5032555;28;20987;-65
2021/11/17 11:38:07;;;;;;;3.17;1.50;;;7.10;99.90;;;;;;5031301;28;20475;-65
2021/11/17 11:41:02;;;;;;;2.30;1.57;;;7.10;99.90;;;;;;5032500;28;20454;-65
2021/11/17 11:43:29;;;;;;;3.63;1.67;;;7.10;99.90;;;;;;5032371;28;20445;-65
2021/11/17 11:45:56;;;;;;;2.30;1.20;;;7.10;99.90;;;;;;5032248;28;20537;-65
2021/11/17 11:48:57;;;;;;;3.00;2.13;;;7.20;99.90;;;;;;5031115;28;20441;-66
2021/11/17 11:51:50;;;;;;;2.40;1.40;;;7.20;99.90;;;;;;5032369;28;20484;-65
2021/11/17 11:54:26;;;;;;;2.97;1.33;;;7.20;99.90;;;;;;5032454;28;20452;-66
2021/11/17 11:56:55;;;;;;;2.87;1.30;;;7.30;99.90;;;;;;5030755;28;20477;-64
2021/11/17 11:59:27;;;;;;;3.30;1.40;;;7.20;99.90;;;;;;5031925;28;20450;-66
2021/11/17 12:02:06;;;;;;;3.43;1.17;;;7.20;99.90;;;;;;5032263;28;20456;-66
2021/11/17 12:04:34;;;;;;;3.30;1.33;;;7.20;99.90;;;;;;5032251;28;20445;-65
2021/11/17 12:07:08;;;;;;;2.57;1.30;;;7.30;99.90;;;;;;5030737;28;20473;-66
2021/11/17 12:09:39;;;;;;;2.83;1.30;;;7.30;99.90;;;;;;5031907;28;20437;-66
2021/11/17 12:12:10;;;;;;;2.30;1.20;;;7.30;99.90;;;;;;5031674;28;20489;-65
2021/11/17 12:14:43;;;;;;;2.50;1.40;;;7.30;99.90;;;;;;5031874;28;20450;-66
2021/11/17 12:17:10;;;;;;;2.30;1.30;;;7.30;99.90;;;;;;5030570;28;20469;-64
2021/11/17 12:19:50;;;;;;;2.73;1.40;;;7.30;99.90;;;;;;5031762;28;20449;-65
2021/11/17 12:22:21;;;;;;;3.10;1.60;;;7.30;99.90;;;;;;5031575;28;20441;-65
2021/11/17 12:24:51;;;;;;;3.43;1.53;;;7.30;99.90;;;;;;5031827;28;20459;-65
2021/11/17 12:27:20;;;;;;;2.70;1.63;;;7.30;99.90;;;;;;5030360;28;20476;-65
2021/11/17 12:29:55;;;;;;;2.53;1.10;;;7.20;99.90;;;;;;5031544;28;20454;-65
2021/11/17 12:32:37;;;;;;;1.87;1.00;;;7.30;99.90;;;;;;5031508;28;20433;-60
2021/11/17 12:35:21;;;;;;;2.20;1.20;;;7.30;99.90;;;;;;5031368;28;20468;-65
2021/11/17 12:37:52;;;;;;;2.67;1.40;;;7.30;99.90;;;;;;5030489;28;20465;-65
2021/11/17 12:40:31;;;;;;;2.83;1.30;;;7.40;99.90;;;;;;5031446;28;20442;-66
2021/11/17 12:43:00;;;;;;;2.27;1.23;;;7.40;99.90;;;;;;5031404;28;20502;-63
2021/11/17 12:45:30;;;;;;;1.87;1.03;;;7.40;99.90;;;;;;5031242;28;20455;-65
2021/11/17 12:48:00;;;;;;;2.47;1.57;;;7.30;99.90;;;;;;5030263;28;20576;-64
2021/11/17 12:50:38;;;;;;;2.80;1.42;;;7.30;99.90;;;;;;5031089;28;20477;-66
2021/11/17 12:53:09;;;;;;;3.40;1.40;;;7.30;99.90;;;;;;5031094;28;20356;-64
2021/11/17 12:55:41;;;;;;;3.07;1.40;;;7.30;99.90;;;;;;5031147;28;20817;-64
2021/11/17 12:58:11;;;;;;;2.53;1.40;;;7.40;99.90;;;;;;5029685;28;21007;-64
2021/11/17 13:00:52;;;;;;;3.90;1.93;;;7.40;99.90;;;;;;5031182;28;20441;-64
2021/11/17 13:03:33;;;;;;;2.50;1.60;;;7.40;99.90;;;;;;5031370;28;20467;-64
2021/11/17 13:06:18;;;;;;;2.43;1.17;;;7.40;99.90;;;;;;5030817;28;20471;-65
2021/11/17 13:08:47;;;;;;;2.40;1.50;;;7.30;99.90;;;;;;5028637;28;21005;-64
2021/11/17 13:11:18;;;;;;;2.30;0.90;;;7.20;99.90;;;;;;5029893;28;21011;-66
2021/11/17 13:13:50;;;;;;;2.40;1.33;;;7.30;99.90;;;;;;5030598;28;20477;-64
2021/11/17 13:16:21;;;;;;;1.73;0.97;;;7.30;99.90;;;;;;5046458;28;20514;-63
2021/11/17 13:18:57;;;;;;;6.00;1.23;;;7.30;99.90;;;;;;5046862;28;20455;-64
2021/11/17 13:21:32;;;;;;;3.00;2.10;;;7.30;99.90;;;;;;5049296;28;20523;-66
2021/11/17 13:24:13;;;;;;;2.20;1.30;;;7.20;99.90;;;;;;5037640;28;20440;-65
2021/11/17 13:26:42;;;;;;;2.90;1.87;;;7.20;99.90;;;;;;5049116;28;20465;-65
2021/11/17 13:29:25;;;;;;;2.43;1.60;;;7.10;99.90;;;;;;5049017;28;20455;-65
2021/11/17 13:31:53;;;;;;;7.70;3.43;;;7.00;99.90;;;;;;5049464;28;20484;-63
2021/11/17 13:34:39;;;;;;;3.20;1.60;;;7.00;99.90;;;;;;5047794;28;20475;-65
2021/11/17 13:37:25;;;;;;;2.97;1.70;;;7.10;99.90;;;;;;5046877;28;20472;-63
2021/11/17 13:39:56;;;;;;;3.67;2.00;;;7.20;99.90;;;;;;5045400;28;20448;-64
2021/11/17 13:42:25;;;;;;;2.87;1.47;;;7.20;99.90;;;;;;5040234;28;20535;-65
2021/11/17 13:44:54;;;;;;;2.53;1.73;;;7.10;99.90;;;;;;5043539;28;20822;-63
2021/11/17 13:47:23;;;;;;;2.80;1.70;;;7.20;99.90;;;;;;5032684;28;20461;-65
2021/11/17 13:49:52;;;;;;;4.23;2.30;;;7.20;99.90;;;;;;5042907;28;20449;-62
2021/11/17 13:52:22;;;;;;;3.67;2.00;;;7.20;99.90;;;;;;5047959;28;20496;-64
2021/11/17 13:54:50;;;;;;;2.60;1.90;;;7.10;99.90;;;;;;5042425;28;20440;-64
2021/11/17 13:57:18;;;;;;;4.97;2.27;;;7.10;99.90;;;;;;5038529;28;20460;-64
2021/11/17 13:59:46;;;;;;;3.47;2.77;;;7.00;99.90;;;;;;5038699;28;20455;-65
2021/11/17 14:02:14;;;;;;;3.93;2.90;;;7.00;99.90;;;;;;5037373;28;20440;-65
2021/11/17 14:04:41;;;;;;;7.87;4.10;;;7.00;99.90;;;;;;5041099;28;20459;-65
2021/11/17 14:07:12;;;;;;;4.80;2.47;;;7.00;99.90;;;;;;5033848;28;20504;-64
2021/11/17 14:09:41;;;;;;;4.30;2.80;;;7.00;99.90;;;;;;5034874;28;20476;-63
2021/11/17 14:12:09;;;;;;;4.30;3.20;;;7.00;99.90;;;;;;5042254;28;20498;-64
2021/11/17 14:14:36;;;;;;;3.50;2.30;;;6.90;99.90;;;;;;5047646;28;20461;-65
2021/11/17 14:17:05;;;;;;;3.80;2.60;;;7.00;99.90;;;;;;5046812;28;20982;-62
2021/11/17 14:19:32;;;;;;;3.60;2.40;;;7.00;99.90;;;;;;5047551;28;20483;-64
2021/11/17 14:21:59;;;;;;;5.80;3.13;;;7.00;99.90;;;;;;5047747;28;20443;-63
2021/11/17 14:24:27;;;;;;;6.33;3.50;;;7.00;99.90;;;;;;5050076;28;20437;-64
2021/11/17 14:26:55;;;;;;;3.83;2.50;;;7.00;99.90;;;;;;5051070;28;20464;-64
2021/11/17 14:29:25;;;;;;;4.27;2.13;;;7.10;99.90;;;;;;5052070;28;20451;-65
2021/11/17 14:31:55;;;;;;;5.47;2.77;;;7.10;99.90;;;;;;5052713;28;20886;-65
2021/11/17 14:34:23;;;;;;;4.17;2.70;;;7.10;99.90;;;;;;5048909;28;20954;-64
2021/11/17 14:36:52;;;;;;;4.17;3.10;;;7.10;99.90;;;;;;5041600;28;20927;-66
2021/11/17 14:39:21;;;;;;;4.47;2.37;;;7.10;99.90;;;;;;5040351;28;20441;-65
2021/11/17 14:41:48;;;;;;;4.00;2.40;;;7.10;99.90;;;;;;5041627;28;20523;-65
2021/11/17 14:44:17;;;;;;;4.73;2.83;;;7.10;99.90;;;;;;5040781;28;20765;-65
2021/11/17 14:46:43;;;;;;;3.43;2.27;;;7.20;99.90;;;;;;5041753;28;20877;-65
2021/11/17 14:49:11;;;;;;;4.57;2.40;;;7.20;99.90;;;;;;5041910;28;20446;-63
2021/11/17 14:51:39;;;;;;;4.30;2.63;;;7.20;99.90;;;;;;5041031;28;20506;-64
2021/11/17 14:54:05;;;;;;;5.30;2.83;;;7.20;99.90;;;;;;5043852;28;20529;-65
2021/11/17 14:56:32;;;;;;;5.27;3.00;;;7.20;99.90;;;;;;5044802;28;21159;-66
2021/11/17 14:58:59;;;;;;;3.43;2.50;;;7.10;99.90;;;;;;5052812;28;20970;-64
2021/11/17 15:01:31;;;;;;;4.10;2.50;;;7.00;99.90;;;;;;5052846;28;20436;-65
2021/11/17 15:03:59;;;;;;;4.00;3.03;;;6.90;99.90;;;;;;5052800;28;20449;-65
2021/11/17 15:06:26;;;;;;;3.37;2.47;;;6.90;99.90;;;;;;5051963;28;20468;-64
2021/11/17 15:08:53;;;;;;;4.03;2.70;;;7.00;99.90;;;;;;5051917;28;20527;-64
2021/11/17 15:11:22;;;;;;;4.50;3.30;;;7.00;99.90;;;;;;5045507;28;20484;-64
2021/11/17 15:13:50;;;;;;;5.73;3.23;;;7.00;99.90;;;;;;5041358;28;20445;-64
2021/11/17 15:16:17;;;;;;;6.23;3.40;;;7.10;99.90;;;;;;5037717;28;20869;-64
2021/11/17 15:18:48;;;;;;;4.60;3.10;;;7.10;99.90;;;;;;5040780;28;20440;-65
2021/11/17 15:21:18;;;;;;;5.00;3.20;;;7.10;99.90;;;;;;5044920;28;20451;-65
2021/11/17 15:23:46;;;;;;;5.73;3.33;;;7.10;99.90;;;;;;5046061;28;20447;-65
2021/11/17 15:26:13;;;;;;;8.47;3.77;;;7.10;99.90;;;;;;5039407;28;20457;-64
2021/11/17 15:28:43;;;;;;;4.97;3.40;;;7.10;99.90;;;;;;5041586;28;20845;-63
2021/11/17 15:31:12;;;;;;;6.50;3.37;;;7.10;99.90;;;;;;5045853;28;20836;-64
2021/11/17 15:33:39;;;;;;;3.97;2.73;;;7.10;99.90;;;;;;5051668;28;20453;-64
2021/11/17 15:36:11;;;;;;;4.40;2.77;;;7.10;99.90;;;;;;5050631;28;20958;-64
2021/11/17 15:38:38;;;;;;;4.87;3.63;;;7.10;99.90;;;;;;5049696;28;20448;-63
2021/11/17 15:41:08;;;;;;;7.03;3.30;;;7.20;99.90;;;;;;5051561;28;20443;-65
2021/11/17 15:43:35;;;;;;;4.90;2.83;;;7.20;99.90;;;;;;5051850;28;20528;-64
2021/11/17 15:46:02;;;;;;;5.33;3.10;;;7.20;99.90;;;;;;5047122;28;20445;-64
2021/11/17 15:48:34;;;;;;;5.13;3.33;;;7.10;99.90;;;;;;5046663;28;20878;-64
2021/11/17 15:51:13;;;;;;;4.50;3.23;;;7.10;99.90;;;;;;5029930;28;21079;-64
2021/11/17 15:53:41;;;;;;;5.50;3.73;;;7.00;99.90;;;;;;5030830;28;20447;-64
2021/11/17 15:56:09;;;;;;;5.27;3.13;;;7.00;99.90;;;;;;5030815;28;20564;-65
2021/11/17 15:58:37;;;;;;;7.03;4.00;;;7.00;99.90;;;;;;5029684;28;20537;-64
2021/11/17 16:01:04;;;;;;;4.40;3.27;;;7.00;99.90;;;;;;5031670;28;20449;-64
2021/11/17 16:03:32;;;;;;;4.67;2.90;;;7.00;99.90;;;;;;5032129;28;20715;-64
2021/11/17 16:06:03;;;;;;;5.80;3.73;;;7.00;99.90;;;;;;5031689;28;20447;-63